• Join FlightAware (Why Join?)
  • Login
  • US Flag 
02:41AM EST


 

Airport Tracker/Info


-or-


 

Live Flight TrackerFlight Track Log ✈ AAR1085 ✈ 18-May-2012 ✈ RKSS / GMP - RJTT / HND

Flight Track Log - Related Links

Times and Time Zones

All times are in EDT time to prevent confusion due to time zone crossing. See the AAR1085 flight status page for this flight to view local times or setup timezone preferences in your user account.

Time Position Orientation Groundspeed Altitude Reporting Facility
EDT Latitude Longitude Course Direction KTS MPH feet Rate Location/Type
07:13AM 37.5367 127.0120 97° East  Level Estimated
07:14AM 37.5224 127.1563 97° East  Level Estimated
07:15AM 37.5078 127.3006 97° East  Level Estimated
07:16AM 37.4932 127.4448 97° East  Level Estimated
07:17AM 37.4783 127.5890 97° East  Level Estimated
07:18AM 37.4633 127.7330 98° East  Level Estimated
07:19AM 37.4481 127.8771 98° East  Level Estimated
07:20AM 37.4327 128.0211 98° East  Level Estimated
07:21AM 37.4171 128.1650 98° East  Level Estimated
07:22AM 37.4014 128.3089 98° East  Level Estimated
07:23AM 37.3855 128.4527 98° East  Level Estimated
07:24AM 37.3694 128.5964 98° East  Level Estimated
07:25AM 37.3532 128.7401 98° East  Level Estimated
07:26AM 37.3367 128.8837 98° East  Level Estimated
07:27AM 37.3201 129.0272 98° East  Level Estimated
07:28AM 37.3034 129.1707 98° East  Level Estimated
07:29AM 37.2864 129.3141 98° East  Level Estimated
07:30AM 37.2693 129.4575 99° East  Level Estimated
07:31AM 37.2520 129.6008 99° East  Level Estimated
07:32AM 37.2346 129.7440 99° East  Level Estimated
07:33AM 37.2169 129.8872 99° East  Level Estimated
07:34AM 37.1991 130.0302 99° East  Level Estimated
07:35AM 37.1811 130.1733 99° East  Level Estimated
07:36AM 37.1630 130.3162 99° East  Level Estimated
07:37AM 37.1447 130.4591 99° East  Level Estimated
07:38AM 37.1262 130.6019 99° East  Level Estimated
07:39AM 37.1075 130.7447 99° East  Level Estimated
07:40AM 37.0887 130.8873 99° East  Level Estimated
07:41AM 37.0696 131.0299 100° East  Level Estimated
07:42AM 37.0505 131.1725 100° East  Level Estimated
07:43AM 37.0311 131.3149 100° East  Level Estimated
07:44AM 37.0116 131.4573 100° East  Level Estimated
07:45AM 36.9919 131.5996 100° East  Level Estimated
07:46AM 36.9720 131.7419 100° East  Level Estimated
07:47AM 36.9520 131.8840 100° East  Level Estimated
07:48AM 36.9318 132.0261 100° East  Level Estimated
07:49AM 36.9114 132.1681 100° East  Level Estimated
07:50AM 36.8909 132.3101 100° East  Level Estimated
07:51AM 36.8702 132.4519 100° East  Level Estimated
07:52AM 36.8493 132.5937 100° East  Level Estimated
07:53AM 36.8283 132.7354 101° East  Level Estimated
07:54AM 36.8071 132.8771 101° East  Level Estimated
07:55AM 36.7857 133.0186 101° East  Level Estimated
07:56AM 36.7642 133.1601 101° East  Level Estimated
07:57AM 36.7425 133.3015 101° East  Level Estimated
07:58AM 36.7206 133.4428 101° East  Level Estimated
07:59AM 36.6985 133.5840 101° East  Level Estimated
08:00AM 36.6763 133.7252 101° East  Level Estimated
08:01AM 36.6539 133.8662 101° East  Level Estimated
08:02AM 36.6314 134.0072 101° East  Level Estimated
08:03AM 36.6087 134.1481 101° East  Level Estimated
08:04AM 36.5858 134.2889 101° East  Level Estimated
08:05AM 36.5628 134.4297 102° East  Level Estimated
08:06AM 36.5395 134.5703 102° East  Level Estimated
08:07AM 36.5162 134.7109 102° East  Level Estimated
08:08AM 36.4926 134.8514 102° East  Level Estimated
08:09AM 36.4689 134.9918 102° East  Level Estimated
08:10AM 36.4451 135.1321 102° East  Level Estimated
08:11AM 36.4210 135.2723 102° East  Level Estimated
08:12AM 36.3968 135.4125 102° East  Level Estimated
08:13AM 36.3725 135.5525 102° East  Level Estimated
08:14AM 36.3479 135.6925 102° East  Level Estimated
08:15AM 36.3233 135.8324 102° East  Level Estimated
08:16AM 36.2984 135.9721 102° East  Level Estimated
08:17AM 36.2734 136.1118 103° East  Level Estimated
08:18AM 36.2482 136.2514 103° East  Level Estimated
08:19AM 36.2229 136.3909 103° East  Level Estimated
08:20AM 36.1974 136.5304 103° East  Level Estimated
08:21AM 36.1717 136.6697 103° East  Level Estimated
08:22AM 36.1459 136.8089 103° East  Level Estimated
08:23AM 36.1199 136.9481 103° East  Level Estimated
08:24AM 36.0938 137.0871 103° East  Level Estimated
08:25AM 36.0675 137.2261 103° East  Level Estimated
08:26AM 36.0410 137.3650 103° East  Level Estimated
08:27AM 36.0144 137.5037 103° East  Level Estimated
08:28AM 35.9876 137.6424 103° East  Level Estimated
08:29AM 35.9607 137.7810 104° East  Level Estimated
08:30AM 35.9336 137.9195 104° East  Level Estimated
08:31AM 35.9063 138.0579 104° East  Level Estimated
08:32AM 35.8789 138.1962 104° East  Level Estimated
08:33AM 35.8513 138.3344 104° East  Level Estimated
08:34AM 35.8236 138.4725 104° East  Level Estimated
08:35AM 35.7957 138.6105 104° East  Level Estimated
08:36AM 35.7677 138.7484 104° East  Level Estimated
08:37AM 35.7394 138.8862 104° East  Level Estimated
08:38AM 35.7111 139.0240 104° East  Level Estimated
08:39AM 35.6825 139.1616 104° East  Level Estimated
08:40AM 35.6539 139.2991 104° East  Level Estimated
08:41AM 35.6250 139.4365 105° East  Level Estimated
08:42AM 35.5960 139.5739 105° East  Level Estimated
08:43AM 35.5669 139.7111 105° East  Level Estimated
08:44AM 35.5376 139.8482 285° West  Level Estimated
08:45AM 35.5669 139.7111 105° East  Level Estimated
08:46AM 35.5376 139.8482 285° West  Level Estimated
08:47AM 35.5669 139.7111 105° East  Level Estimated
08:48AM 35.5376 139.8482 285° West  Level Estimated
08:49AM 35.5669 139.7111 105° East  Level Estimated
08:50AM 35.5376 139.8482 285° West  Level Estimated
08:51AM 35.5669 139.7111 105° East  Level Estimated
08:52AM 35.5376 139.8482 285° West  Level Estimated
08:53AM 35.5669 139.7111 105° East  Level Estimated
08:54AM 35.5376 139.8482 285° West  Level Estimated
08:55AM 35.5669 139.7111 105° East  Level Estimated
08:56AM 35.5376 139.8482 285° West  Level Estimated
08:57AM 35.5669 139.7111 105° East  Level Estimated
08:58AM 35.5376 139.8482 285° West  Level Estimated
08:59AM 35.5669 139.7111 285° West  Level Estimated